createdAt,value
2019-03-21T00:01:06.147Z,13.97
2019-03-21T00:03:36.903Z,15.00
2019-03-21T00:06:17.637Z,15.10
2019-03-21T00:08:46.333Z,16.20
2019-03-21T00:11:52.171Z,20.70
2019-03-21T00:14:55.753Z,11.17
2019-03-21T00:17:32.219Z,7.23
2019-03-21T00:20:02.568Z,7.03
2019-03-21T00:22:33.099Z,6.17
2019-03-21T00:25:03.545Z,5.50
2019-03-21T00:27:34.142Z,5.13
2019-03-21T00:30:05.841Z,5.10
2019-03-21T00:32:36.398Z,12.50
2019-03-21T00:35:07.622Z,18.00
2019-03-21T00:37:37.926Z,22.03
2019-03-21T00:40:11.183Z,16.50
2019-03-21T00:42:41.705Z,9.47
2019-03-21T00:45:13.758Z,9.60
2019-03-21T00:47:44.376Z,8.87
2019-03-21T00:50:16.299Z,6.30
2019-03-21T00:52:49.914Z,6.60
2019-03-21T00:55:20.544Z,6.57
2019-03-21T00:57:50.871Z,9.23
2019-03-21T01:00:28.077Z,9.43
2019-03-21T01:02:58.776Z,9.67
2019-03-21T01:05:29.318Z,8.90
2019-03-21T01:07:59.815Z,8.00
2019-03-21T01:10:32.829Z,7.67
2019-03-21T01:13:03.557Z,8.77
2019-03-21T01:15:34.386Z,22.17
2019-03-21T01:18:04.910Z,16.70
2019-03-21T01:20:36.693Z,9.40
2019-03-21T01:23:07.063Z,14.23
2019-03-21T01:25:43.822Z,8.37
2019-03-21T01:28:14.187Z,7.53
2019-03-21T01:30:44.958Z,9.67
2019-03-21T01:33:15.394Z,10.13
2019-03-21T01:35:45.863Z,13.97
2019-03-21T01:38:16.123Z,15.13
2019-03-21T01:40:47.314Z,27.40
2019-03-21T01:43:17.822Z,22.30
2019-03-21T01:45:48.239Z,14.27
2019-03-21T01:48:18.839Z,11.77
2019-03-21T01:50:49.197Z,7.23
2019-03-21T01:53:19.685Z,10.30
2019-03-21T01:55:51.583Z,13.43
2019-03-21T01:58:25.607Z,12.60
2019-03-21T02:00:56.025Z,10.40
2019-03-21T02:03:26.655Z,8.80
2019-03-21T02:05:59.675Z,8.27
2019-03-21T02:08:31.246Z,9.20
2019-03-21T02:11:01.867Z,8.57
2019-03-21T02:13:32.233Z,8.30
2019-03-21T02:16:02.743Z,8.03
2019-03-21T02:18:33.289Z,8.57
2019-03-21T02:21:03.657Z,8.73
2019-03-21T02:23:34.111Z,8.03
2019-03-21T02:26:04.747Z,8.50
2019-03-21T02:28:35.250Z,6.80
2019-03-21T02:31:06.818Z,7.10
2019-03-21T02:33:37.235Z,7.17
2019-03-21T02:36:07.653Z,7.57
2019-03-21T02:38:38.484Z,7.03
2019-03-21T02:41:10.400Z,6.80
2019-03-21T02:43:42.712Z,6.50
2019-03-21T02:46:15.239Z,7.07
2019-03-21T02:48:46.005Z,6.87
2019-03-21T02:51:17.944Z,7.17
2019-03-21T02:53:48.571Z,6.60
2019-03-21T02:56:19.753Z,6.07
2019-03-21T02:58:50.323Z,6.73
2019-03-21T03:01:21.103Z,6.10
2019-03-21T03:03:51.407Z,6.87
2019-03-21T03:06:21.808Z,6.07
2019-03-21T03:08:53.431Z,5.73
2019-03-21T03:11:24.024Z,5.60
2019-03-21T03:13:54.630Z,5.70
2019-03-21T03:16:25.213Z,6.17
2019-03-21T03:18:56.170Z,6.80
2019-03-21T03:21:29.456Z,5.73
2019-03-21T03:23:59.987Z,5.43
2019-03-21T03:26:30.626Z,6.00
2019-03-21T03:29:02.014Z,5.07
2019-03-21T03:31:32.567Z,5.63
2019-03-21T03:34:03.170Z,6.00
2019-03-21T03:36:33.754Z,5.97
2019-03-21T03:39:05.596Z,6.40
2019-03-21T03:41:36.290Z,5.80
2019-03-21T03:44:07.034Z,6.50
2019-03-21T03:46:37.387Z,6.23
2019-03-21T03:49:08.328Z,6.70
2019-03-21T03:51:38.984Z,6.07
2019-03-21T03:54:10.118Z,6.10
2019-03-21T03:56:40.533Z,6.10
2019-03-21T03:59:11.011Z,5.73
2019-03-21T04:01:41.459Z,6.17
2019-03-21T04:04:12.543Z,5.83
2019-03-21T04:06:43.003Z,6.17
2019-03-21T04:09:13.352Z,6.27
2019-03-21T04:11:43.717Z,5.60
2019-03-21T04:14:15.870Z,6.23
2019-03-21T04:16:46.635Z,6.23
2019-03-21T04:19:16.934Z,6.87
2019-03-21T04:21:47.371Z,6.47
2019-03-21T04:24:17.981Z,6.53
2019-03-21T04:26:48.429Z,5.70
2019-03-21T04:29:18.637Z,5.73
2019-03-21T04:31:49.076Z,6.27
2019-03-21T04:34:19.421Z,6.87
2019-03-21T04:36:49.753Z,7.13
2019-03-21T04:39:20.326Z,6.47
2019-03-21T04:41:50.757Z,6.57
2019-03-21T04:44:21.349Z,6.30
2019-03-21T04:46:52.083Z,7.20
2019-03-21T04:49:22.333Z,6.97
2019-03-21T04:51:52.966Z,7.10
2019-03-21T04:54:23.306Z,6.87
2019-03-21T04:56:53.722Z,6.80
2019-03-21T04:59:24.964Z,9.43
2019-03-21T05:01:55.691Z,12.00
2019-03-21T05:04:26.401Z,27.27
2019-03-21T05:06:56.716Z,35.33
2019-03-21T05:09:30.199Z,52.90
2019-03-21T05:12:02.007Z,25.97
2019-03-21T05:14:32.310Z,8.53
2019-03-21T05:17:03.192Z,9.67
2019-03-21T05:19:33.552Z,7.83
2019-03-21T05:22:04.332Z,9.20
2019-03-21T05:24:34.834Z,11.10
2019-03-21T05:27:05.267Z,20.93
2019-03-21T05:29:36.094Z,11.40
2019-03-21T05:32:06.694Z,16.77
2019-03-21T05:34:38.053Z,10.13
2019-03-21T05:37:08.574Z,14.17
2019-03-21T05:39:38.898Z,24.03
2019-03-21T05:42:15.416Z,15.80
2019-03-21T05:44:46.101Z,13.00
2019-03-21T05:47:16.445Z,11.63
2019-03-21T05:49:46.945Z,9.70
2019-03-21T05:52:17.446Z,11.40
2019-03-21T05:54:48.302Z,9.80
2019-03-21T05:57:18.890Z,11.67
2019-03-21T05:59:49.255Z,9.70
2019-03-21T06:02:19.834Z,9.33
2019-03-21T06:04:50.230Z,8.93
2019-03-21T06:07:35.690Z,8.70
2019-03-21T06:10:09.028Z,9.10
2019-03-21T06:12:45.669Z,8.93
2019-03-21T06:15:19.293Z,9.50
2019-03-21T06:18:00.008Z,10.53
2019-03-21T06:20:54.572Z,9.80
2019-03-21T06:23:31.922Z,11.50
2019-03-21T06:26:45.334Z,8.57
2019-03-21T06:29:15.755Z,9.07
2019-03-21T06:31:46.750Z,9.53
2019-03-21T06:34:17.633Z,9.57
2019-03-21T06:36:48.445Z,9.00
2019-03-21T06:39:18.843Z,8.30
2019-03-21T06:41:49.462Z,8.03
2019-03-21T06:44:20.167Z,8.67
2019-03-21T06:46:50.684Z,8.33
2019-03-21T06:49:21.242Z,8.97
2019-03-21T06:51:51.510Z,8.43
2019-03-21T06:54:22.297Z,8.07
2019-03-21T06:56:52.547Z,9.20
2019-03-21T06:59:23.173Z,8.77
2019-03-21T07:01:53.760Z,9.17
2019-03-21T07:04:24.162Z,7.97
2019-03-21T07:06:54.816Z,8.90
2019-03-21T07:09:25.413Z,20.10
2019-03-21T07:11:55.913Z,17.43
2019-03-21T07:14:26.161Z,11.87
2019-03-21T07:17:00.650Z,11.67
2019-03-21T07:19:28.770Z,11.77
2019-03-21T07:22:00.347Z,11.40
2019-03-21T07:24:30.864Z,10.10
2019-03-21T07:27:02.014Z,11.17
2019-03-21T07:29:32.359Z,9.43
2019-03-21T07:32:02.875Z,9.23
2019-03-21T07:34:33.487Z,8.57
2019-03-21T07:37:03.863Z,9.13
2019-03-21T07:39:34.204Z,10.90
2019-03-21T07:42:04.710Z,11.80
2019-03-21T07:44:35.562Z,11.83
2019-03-21T07:47:12.731Z,8.93
2019-03-21T07:49:38.001Z,8.93
2019-03-21T07:52:08.327Z,9.67
2019-03-21T07:54:38.583Z,9.80
2019-03-21T07:57:09.455Z,9.23
2019-03-21T07:59:40.037Z,8.80
2019-03-21T08:02:10.567Z,10.10
2019-03-21T08:04:40.799Z,9.80
2019-03-21T08:07:11.047Z,8.67
2019-03-21T08:09:41.391Z,8.20
2019-03-21T08:12:11.669Z,8.33
2019-03-21T08:14:42.097Z,8.60
2019-03-21T08:17:13.069Z,7.30
2019-03-21T08:19:43.478Z,7.90
2019-03-21T08:22:13.856Z,8.40
2019-03-21T08:24:44.096Z,7.73
2019-03-21T08:27:14.423Z,5.90
2019-03-21T08:29:45.027Z,6.70
2019-03-21T08:32:15.537Z,6.30
2019-03-21T08:34:46.295Z,5.97
2019-03-21T08:37:16.550Z,5.83
2019-03-21T08:39:47.513Z,5.60
2019-03-21T08:42:18.304Z,4.77
2019-03-21T08:44:48.567Z,4.20
2019-03-21T08:47:18.898Z,4.00
2019-03-21T08:49:49.746Z,3.93
2019-03-21T08:52:20.494Z,4.10
2019-03-21T08:54:52.237Z,4.50
2019-03-21T08:57:22.610Z,3.30
2019-03-21T08:59:52.829Z,3.63
2019-03-21T09:02:23.063Z,3.80
2019-03-21T09:04:53.751Z,3.80
2019-03-21T09:07:24.343Z,3.50
2019-03-21T09:09:54.781Z,4.37
2019-03-21T09:12:25.107Z,4.37
2019-03-21T09:14:55.678Z,3.10
2019-03-21T09:17:26.042Z,3.10
2019-03-21T09:19:56.306Z,3.17
2019-03-21T09:22:27.573Z,2.80
2019-03-21T09:24:58.162Z,3.03
2019-03-21T09:27:28.399Z,2.80
2019-03-21T09:29:59.168Z,2.93
2019-03-21T09:32:29.402Z,2.97
2019-03-21T09:34:59.729Z,3.00
2019-03-21T09:37:30.158Z,2.70
2019-03-21T09:40:00.666Z,3.07
2019-03-21T09:42:31.194Z,2.60
2019-03-21T09:45:02.162Z,3.00
2019-03-21T09:47:32.505Z,2.57
2019-03-21T09:50:03.167Z,2.83
2019-03-21T09:52:33.656Z,2.80
2019-03-21T09:55:04.433Z,2.67
2019-03-21T09:57:35.027Z,3.30
2019-03-21T10:00:06.342Z,2.30
2019-03-21T10:02:36.723Z,2.67
2019-03-21T10:05:07.663Z,2.90
2019-03-21T10:07:38.227Z,2.50
2019-03-21T10:10:08.870Z,2.47
2019-03-21T10:12:39.359Z,2.57
2019-03-21T10:15:09.936Z,2.73
2019-03-21T10:17:40.295Z,2.83
2019-03-21T10:20:10.794Z,2.40
2019-03-21T10:22:41.504Z,3.33
2019-03-21T10:25:11.961Z,2.63
2019-03-21T10:27:42.572Z,2.43
2019-03-21T10:30:15.532Z,2.83
2019-03-21T10:32:45.905Z,2.90
2019-03-21T10:35:16.590Z,3.70
2019-03-21T10:37:46.917Z,3.13
2019-03-21T10:40:17.351Z,2.87
2019-03-21T10:42:48.119Z,2.67
2019-03-21T10:45:18.739Z,2.47
2019-03-21T10:47:49.298Z,3.90
2019-03-21T10:50:32.227Z,4.33
2019-03-21T10:53:03.071Z,4.20
2019-03-21T10:55:33.706Z,4.90
2019-03-21T10:58:04.589Z,5.70
2019-03-21T11:00:35.098Z,3.43
2019-03-21T11:03:06.037Z,4.20
2019-03-21T11:05:36.584Z,3.10
2019-03-21T11:08:07.444Z,3.47
2019-03-21T11:10:37.739Z,4.00
2019-03-21T11:13:08.360Z,4.10
2019-03-21T11:15:38.703Z,3.90
2019-03-21T11:18:09.415Z,3.23
2019-03-21T11:20:40.938Z,3.50
2019-03-21T11:23:11.379Z,3.13
2019-03-21T11:25:41.771Z,3.17
2019-03-21T11:28:12.426Z,4.80
2019-03-21T11:30:44.131Z,3.27
2019-03-21T11:33:14.387Z,3.33
2019-03-21T11:35:44.738Z,2.80
2019-03-21T11:38:15.346Z,3.23
2019-03-21T11:40:48.220Z,3.10
2019-03-21T11:43:19.494Z,2.80
2019-03-21T11:45:50.354Z,2.80
2019-03-21T11:48:20.909Z,2.53
2019-03-21T11:50:51.164Z,2.83
2019-03-21T11:53:22.101Z,3.77
2019-03-21T11:55:53.236Z,3.07
2019-03-21T11:58:23.855Z,3.60
2019-03-21T12:00:54.093Z,3.13
2019-03-21T12:03:24.648Z,3.10
2019-03-21T12:05:55.018Z,2.97
2019-03-21T12:08:25.350Z,3.03
2019-03-21T12:10:55.918Z,3.10
2019-03-21T12:13:26.524Z,3.00
2019-03-21T12:15:56.801Z,3.23
2019-03-21T12:18:27.168Z,3.13
2019-03-21T12:20:57.982Z,2.80
2019-03-21T12:23:28.363Z,3.13
2019-03-21T12:25:58.971Z,2.80
2019-03-21T12:28:29.352Z,3.30
2019-03-21T12:30:59.955Z,2.73
2019-03-21T12:33:30.511Z,3.50
2019-03-21T12:36:01.937Z,3.70
2019-03-21T12:38:32.515Z,3.60
2019-03-21T12:41:02.811Z,3.23
2019-03-21T12:43:33.071Z,3.50
2019-03-21T12:46:03.417Z,3.60
2019-03-21T12:48:33.708Z,3.70
2019-03-21T12:51:04.076Z,3.60
2019-03-21T12:53:34.369Z,4.00
2019-03-21T12:56:05.007Z,3.90
2019-03-21T12:58:35.330Z,3.40
2019-03-21T13:01:05.979Z,3.83
2019-03-21T13:03:36.584Z,3.87
2019-03-21T13:06:06.916Z,8.13
2019-03-21T13:08:37.482Z,3.70
2019-03-21T13:11:08.182Z,3.50
2019-03-21T13:13:38.734Z,3.27
2019-03-21T13:16:09.382Z,4.03
2019-03-21T13:18:39.799Z,4.07
2019-03-21T13:21:10.236Z,3.70
2019-03-21T13:23:40.853Z,3.73
2019-03-21T13:26:11.147Z,4.00
2019-03-21T13:28:41.418Z,3.80
2019-03-21T13:31:12.026Z,3.50
2019-03-21T13:33:42.286Z,3.70
2019-03-21T13:36:13.203Z,4.87
2019-03-21T13:38:43.710Z,4.10
2019-03-21T13:41:13.976Z,3.87
2019-03-21T13:43:44.874Z,3.33
2019-03-21T13:46:15.680Z,3.50
2019-03-21T13:48:46.284Z,4.10
2019-03-21T13:51:16.706Z,3.90
2019-03-21T13:53:46.994Z,3.90
2019-03-21T13:56:17.235Z,3.97
2019-03-21T13:58:47.864Z,3.90
2019-03-21T14:01:18.391Z,3.73
2019-03-21T14:03:48.662Z,7.10
2019-03-21T14:06:19.295Z,4.37
2019-03-21T14:08:49.546Z,3.93
2019-03-21T14:11:19.891Z,4.03
2019-03-21T14:13:50.739Z,4.20
2019-03-21T14:16:21.017Z,3.80
2019-03-21T14:18:51.638Z,3.93
2019-03-21T14:21:21.975Z,3.33
2019-03-21T14:23:52.432Z,4.20
2019-03-21T14:26:22.707Z,6.30
2019-03-21T14:28:53.171Z,3.73
2019-03-21T14:31:23.418Z,3.63
2019-03-21T14:33:53.673Z,4.27
2019-03-21T14:36:24.270Z,3.87
2019-03-21T14:38:54.833Z,4.07
2019-03-21T14:41:25.799Z,4.37
2019-03-21T14:43:56.347Z,3.87
2019-03-21T14:46:26.894Z,5.93
2019-03-21T14:48:57.482Z,4.37
2019-03-21T14:51:27.733Z,4.80
2019-03-21T14:53:58.194Z,4.83
2019-03-21T14:56:29.001Z,4.73
2019-03-21T14:58:59.340Z,5.00
2019-03-21T15:01:29.862Z,4.87
2019-03-21T15:04:00.171Z,4.10
2019-03-21T15:06:30.777Z,3.83
2019-03-21T15:09:01.259Z,3.77
2019-03-21T15:11:37.794Z,3.70
2019-03-21T15:14:08.674Z,3.93
2019-03-21T15:16:39.256Z,4.00
2019-03-21T15:19:09.784Z,4.40
2019-03-21T15:21:40.627Z,4.77
2019-03-21T15:24:10.899Z,4.50
2019-03-21T15:26:41.248Z,6.03
2019-03-21T15:29:11.487Z,4.20
2019-03-21T15:31:41.772Z,3.87
2019-03-21T15:34:12.267Z,3.90
2019-03-21T15:36:42.525Z,3.77
2019-03-21T15:39:12.797Z,4.40
2019-03-21T15:41:43.087Z,4.00
2019-03-21T15:44:14.162Z,4.20
2019-03-21T15:46:45.077Z,4.70
2019-03-21T15:49:16.176Z,4.40
2019-03-21T15:51:46.582Z,4.03
2019-03-21T15:54:17.174Z,3.93
2019-03-21T15:56:47.495Z,3.87
2019-03-21T15:59:17.999Z,4.23
2019-03-21T16:01:48.573Z,4.37
2019-03-21T16:04:19.093Z,3.90
2019-03-21T16:06:50.013Z,4.30
2019-03-21T16:09:20.724Z,4.53
2019-03-21T16:11:51.288Z,3.97
2019-03-21T16:14:21.810Z,4.10
2019-03-21T16:16:52.450Z,4.00
2019-03-21T16:19:23.072Z,3.93
2019-03-21T16:21:57.881Z,4.30
2019-03-21T16:24:28.684Z,4.20
2019-03-21T16:27:03.283Z,7.10
2019-03-21T16:29:33.912Z,4.70
2019-03-21T16:32:04.534Z,4.50
2019-03-21T16:34:35.463Z,5.63
2019-03-21T16:37:22.579Z,5.00
2019-03-21T16:39:53.196Z,5.30
2019-03-21T16:42:23.690Z,5.47
2019-03-21T16:44:54.959Z,5.53
2019-03-21T16:47:25.908Z,13.20
2019-03-21T16:49:56.723Z,7.30
2019-03-21T16:52:27.499Z,7.00
2019-03-21T16:54:58.609Z,7.27
2019-03-21T16:57:29.804Z,5.60
2019-03-21T17:00:00.680Z,6.60
2019-03-21T17:02:31.452Z,7.07
2019-03-21T17:05:02.923Z,7.90
2019-03-21T17:07:33.997Z,7.07
2019-03-21T17:10:08.138Z,8.10
2019-03-21T17:12:40.828Z,8.17
2019-03-21T17:15:12.987Z,6.20
2019-03-21T17:17:45.337Z,6.70
2019-03-21T17:20:17.489Z,6.10
2019-03-21T17:22:48.345Z,8.50
2019-03-21T17:25:19.114Z,8.17
2019-03-21T17:27:50.390Z,8.40
2019-03-21T17:30:21.287Z,7.13
2019-03-21T17:32:52.229Z,7.90
2019-03-21T17:35:23.333Z,7.00
2019-03-21T17:37:54.331Z,6.37
2019-03-21T17:40:25.414Z,5.77
2019-03-21T17:42:56.134Z,5.67
2019-03-21T17:45:26.900Z,6.10
2019-03-21T17:47:58.453Z,5.77
2019-03-21T17:50:30.863Z,6.63
2019-03-21T17:53:01.671Z,6.27
2019-03-21T17:55:36.705Z,6.27
2019-03-21T17:58:15.370Z,6.83
2019-03-21T18:00:46.277Z,7.40
2019-03-21T18:03:17.652Z,10.50
2019-03-21T18:05:48.885Z,19.17
2019-03-21T18:08:19.664Z,13.13
2019-03-21T18:10:50.733Z,13.20
2019-03-21T18:13:21.730Z,12.67
2019-03-21T18:15:52.265Z,11.90
2019-03-21T18:18:23.501Z,10.33
2019-03-21T18:20:54.517Z,10.43
2019-03-21T18:23:25.355Z,10.90
2019-03-21T18:25:56.091Z,11.97
2019-03-21T18:28:26.931Z,13.33
2019-03-21T18:30:59.181Z,14.67
2019-03-21T18:33:29.677Z,15.73
2019-03-21T18:36:00.368Z,23.63
2019-03-21T18:38:32.408Z,23.40
2019-03-21T18:41:05.083Z,15.07
2019-03-21T18:43:35.932Z,19.83
2019-03-21T18:46:07.697Z,17.57
2019-03-21T18:48:38.392Z,21.10
2019-03-21T18:51:09.061Z,12.40
2019-03-21T18:53:39.705Z,17.90
2019-03-21T18:56:10.238Z,17.87
2019-03-21T18:58:41.266Z,17.47
2019-03-21T19:01:11.762Z,16.07
2019-03-21T19:03:42.368Z,17.07
2019-03-21T19:06:12.743Z,15.93
2019-03-21T19:08:43.471Z,16.03
2019-03-21T19:11:17.519Z,16.80
2019-03-21T19:13:48.520Z,16.70
2019-03-21T19:16:19.428Z,16.10
2019-03-21T19:18:55.064Z,13.60
2019-03-21T19:21:25.652Z,13.10
2019-03-21T19:23:57.012Z,14.80
2019-03-21T19:26:27.811Z,18.40
2019-03-21T19:29:02.600Z,16.17
2019-03-21T19:31:35.797Z,18.67
2019-03-21T19:34:09.031Z,18.83
2019-03-21T19:36:42.824Z,13.73
2019-03-21T19:39:13.331Z,11.97
2019-03-21T19:41:43.822Z,10.97
2019-03-21T19:44:15.050Z,10.10
2019-03-21T19:46:46.192Z,20.97
2019-03-21T19:49:17.305Z,10.60
2019-03-21T19:51:48.324Z,11.03
2019-03-21T19:54:19.134Z,11.37
2019-03-21T19:56:50.112Z,12.67
2019-03-21T19:59:20.915Z,12.83
2019-03-21T20:01:51.793Z,11.67
2019-03-21T20:04:26.463Z,12.03
2019-03-21T20:06:57.954Z,10.30
2019-03-21T20:09:29.047Z,11.30
2019-03-21T20:12:00.053Z,11.67
2019-03-21T20:14:33.484Z,10.77
2019-03-21T20:17:04.217Z,12.63
2019-03-21T20:19:34.959Z,13.10
2019-03-21T20:22:05.987Z,12.07
2019-03-21T20:24:39.733Z,16.73
2019-03-21T20:27:11.343Z,17.47
2019-03-21T20:29:44.928Z,16.27
2019-03-21T20:32:20.476Z,16.87
2019-03-21T20:34:48.685Z,14.67
2019-03-21T20:37:20.061Z,15.90
2019-03-21T20:39:50.931Z,14.60
2019-03-21T20:42:22.095Z,14.10
2019-03-21T20:44:53.131Z,12.90
2019-03-21T20:47:29.792Z,13.07
2019-03-21T20:50:05.127Z,12.80
2019-03-21T20:52:42.783Z,12.20
2019-03-21T20:55:17.275Z,11.33
2019-03-21T20:57:50.525Z,11.90
2019-03-21T21:00:22.521Z,12.30
2019-03-21T21:02:55.826Z,11.33
2019-03-21T21:05:29.375Z,11.30
2019-03-21T21:08:00.610Z,9.50
2019-03-21T21:10:32.368Z,9.97
2019-03-21T21:13:03.628Z,9.40
2019-03-21T21:15:37.891Z,12.37
2019-03-21T21:18:10.429Z,11.33
2019-03-21T21:20:44.685Z,12.87
2019-03-21T21:23:17.519Z,15.40
2019-03-21T21:25:52.012Z,14.13
2019-03-21T21:28:23.046Z,13.43
2019-03-21T21:31:01.481Z,14.60
2019-03-21T21:33:32.379Z,14.63
2019-03-21T21:36:04.470Z,16.53
2019-03-21T21:38:35.483Z,15.03
2019-03-21T21:41:11.705Z,11.10
2019-03-21T21:43:47.363Z,9.23
2019-03-21T21:46:18.813Z,10.10
2019-03-21T21:48:55.467Z,9.23
2019-03-21T21:51:25.790Z,8.20
2019-03-21T21:54:04.397Z,10.10
2019-03-21T21:56:41.203Z,7.33
2019-03-21T21:59:14.302Z,9.27
2019-03-21T22:01:45.491Z,9.20
2019-03-21T22:04:23.442Z,8.97
2019-03-21T22:06:57.408Z,8.97
2019-03-21T22:09:36.842Z,12.67
2019-03-21T22:12:08.186Z,12.67
2019-03-21T22:14:41.998Z,12.90
2019-03-21T22:17:17.413Z,10.87
2019-03-21T22:19:59.830Z,13.80
2019-03-21T22:22:33.055Z,10.17
2019-03-21T22:25:07.962Z,8.60
2019-03-21T22:27:41.893Z,14.87
2019-03-21T22:30:14.931Z,11.13
2019-03-21T22:32:50.553Z,18.23
2019-03-21T22:35:21.606Z,36.87
2019-03-21T22:37:56.340Z,26.57
2019-03-21T22:40:28.501Z,19.17
2019-03-21T22:43:02.108Z,11.77
2019-03-21T22:45:35.757Z,11.07
2019-03-21T22:48:09.173Z,11.93
2019-03-21T22:50:40.646Z,14.37
2019-03-21T22:53:20.805Z,19.57
2019-03-21T22:55:51.851Z,48.43
2019-03-21T22:58:31.615Z,33.93
2019-03-21T23:01:03.214Z,44.20
2019-03-21T23:03:35.835Z,26.20
2019-03-21T23:06:07.612Z,24.50
2019-03-21T23:08:41.444Z,20.60
2019-03-21T23:11:14.382Z,16.17
2019-03-21T23:13:47.992Z,13.40
2019-03-21T23:16:24.479Z,13.70
2019-03-21T23:18:56.079Z,16.43
2019-03-21T23:21:26.949Z,16.57
2019-03-21T23:24:00.493Z,14.00
2019-03-21T23:26:35.410Z,16.00
2019-03-21T23:29:07.886Z,13.30
2019-03-21T23:31:39.155Z,16.90
2019-03-21T23:34:10.522Z,12.53
2019-03-21T23:36:41.556Z,11.73
2019-03-21T23:39:16.753Z,10.53
2019-03-21T23:41:51.292Z,12.10
2019-03-21T23:44:26.513Z,9.97
2019-03-21T23:47:02.622Z,13.40
2019-03-21T23:49:33.555Z,11.23
2019-03-21T23:52:08.889Z,12.13
2019-03-21T23:54:41.831Z,15.10
2019-03-21T23:57:15.530Z,21.87
2019-03-21T23:59:46.546Z,12.17
